sensor_id;sensor_type;location;lat;lon;timestamp;P1;durP1;ratioP1;P2;durP2;ratioP2
50906;SDS011;36882;27.680;85.304;2023-06-22T00:04:54;18.67;;;11.93;;
50906;SDS011;36882;27.680;85.304;2023-06-22T00:07:23;21.88;;;11.23;;
50906;SDS011;36882;27.680;85.304;2023-06-22T00:09:53;18.33;;;12.52;;
50906;SDS011;36882;27.680;85.304;2023-06-22T00:12:23;23.02;;;12.90;;
50906;SDS011;36882;27.680;85.304;2023-06-22T00:14:52;21.75;;;11.35;;
50906;SDS011;36882;27.680;85.304;2023-06-22T00:17:22;16.40;;;11.85;;
50906;SDS011;36882;27.680;85.304;2023-06-22T00:19:52;20.25;;;12.52;;
50906;SDS011;36882;27.680;85.304;2023-06-22T00:22:23;21.98;;;12.55;;
50906;SDS011;36882;27.680;85.304;2023-06-22T00:24:56;31.30;;;15.35;;
50906;SDS011;36882;27.680;85.304;2023-06-22T00:27:25;18.80;;;11.82;;
50906;SDS011;36882;27.680;85.304;2023-06-22T00:29:55;21.83;;;12.30;;
50906;SDS011;36882;27.680;85.304;2023-06-22T00:32:25;21.42;;;13.52;;
50906;SDS011;36882;27.680;85.304;2023-06-22T00:34:55;24.50;;;12.98;;
50906;SDS011;36882;27.680;85.304;2023-06-22T00:37:24;22.90;;;11.93;;
50906;SDS011;36882;27.680;85.304;2023-06-22T00:39:57;21.33;;;13.27;;
50906;SDS011;36882;27.680;85.304;2023-06-22T00:44:56;17.30;;;11.00;;
50906;SDS011;36882;27.680;85.304;2023-06-22T00:47:26;19.70;;;11.20;;
50906;SDS011;36882;27.680;85.304;2023-06-22T00:49:56;27.20;;;11.80;;
50906;SDS011;36882;27.680;85.304;2023-06-22T00:52:27;20.65;;;10.65;;
50906;SDS011;36882;27.680;85.304;2023-06-22T00:54:59;28.00;;;12.57;;
50906;SDS011;36882;27.680;85.304;2023-06-22T00:57:30;18.55;;;12.73;;
50906;SDS011;36882;27.680;85.304;2023-06-22T01:00:00;15.07;;;10.70;;
50906;SDS011;36882;27.680;85.304;2023-06-22T01:02:37;21.15;;;10.88;;
50906;SDS011;36882;27.680;85.304;2023-06-22T01:05:07;16.98;;;9.90;;
50906;SDS011;36882;27.680;85.304;2023-06-22T01:15:13;19.20;;;9.82;;
50906;SDS011;36882;27.680;85.304;2023-06-22T01:17:44;18.60;;;11.43;;
50906;SDS011;36882;27.680;85.304;2023-06-22T01:20:15;20.27;;;11.20;;
50906;SDS011;36882;27.680;85.304;2023-06-22T01:30:47;23.55;;;12.73;;
50906;SDS011;36882;27.680;85.304;2023-06-22T01:33:34;21.65;;;13.98;;
50906;SDS011;36882;27.680;85.304;2023-06-22T01:36:04;77.60;;;19.23;;
50906;SDS011;36882;27.680;85.304;2023-06-22T01:38:34;26.50;;;14.68;;
50906;SDS011;36882;27.680;85.304;2023-06-22T01:41:05;30.15;;;15.07;;
50906;SDS011;36882;27.680;85.304;2023-06-22T01:46:03;25.85;;;15.80;;
50906;SDS011;36882;27.680;85.304;2023-06-22T01:48:33;22.17;;;14.63;;
50906;SDS011;36882;27.680;85.304;2023-06-22T01:51:03;28.25;;;17.80;;
50906;SDS011;36882;27.680;85.304;2023-06-22T01:53:33;18.20;;;14.10;;
50906;SDS011;36882;27.680;85.304;2023-06-22T01:58:32;25.33;;;14.70;;
50906;SDS011;36882;27.680;85.304;2023-06-22T02:01:09;22.70;;;14.07;;
50906;SDS011;36882;27.680;85.304;2023-06-22T02:03:53;18.23;;;12.77;;
50906;SDS011;36882;27.680;85.304;2023-06-22T02:06:25;21.00;;;12.75;;
50906;SDS011;36882;27.680;85.304;2023-06-22T02:08:59;26.15;;;13.20;;
50906;SDS011;36882;27.680;85.304;2023-06-22T02:11:33;24.13;;;14.48;;
50906;SDS011;36882;27.680;85.304;2023-06-22T02:14:03;21.52;;;13.55;;
50906;SDS011;36882;27.680;85.304;2023-06-22T02:16:33;20.67;;;13.63;;
50906;SDS011;36882;27.680;85.304;2023-06-22T02:19:05;22.55;;;14.05;;
50906;SDS011;36882;27.680;85.304;2023-06-22T02:21:36;26.17;;;16.33;;
50906;SDS011;36882;27.680;85.304;2023-06-22T02:24:06;24.80;;;15.00;;
50906;SDS011;36882;27.680;85.304;2023-06-22T02:29:07;27.58;;;16.38;;
50906;SDS011;36882;27.680;85.304;2023-06-22T02:34:05;30.20;;;16.08;;
50906;SDS011;36882;27.680;85.304;2023-06-22T02:39:04;26.85;;;13.90;;
50906;SDS011;36882;27.680;85.304;2023-06-22T02:41:34;30.75;;;13.77;;
50906;SDS011;36882;27.680;85.304;2023-06-22T02:44:04;38.40;;;17.92;;
50906;SDS011;36882;27.680;85.304;2023-06-22T02:46:33;30.25;;;14.70;;
50906;SDS011;36882;27.680;85.304;2023-06-22T02:51:33;21.08;;;15.75;;
50906;SDS011;36882;27.680;85.304;2023-06-22T02:54:03;23.67;;;14.98;;
50906;SDS011;36882;27.680;85.304;2023-06-22T02:56:32;28.58;;;16.25;;
50906;SDS011;36882;27.680;85.304;2023-06-22T02:59:04;29.85;;;15.90;;
50906;SDS011;36882;27.680;85.304;2023-06-22T03:01:34;40.42;;;16.73;;
50906;SDS011;36882;27.680;85.304;2023-06-22T03:04:09;24.55;;;16.38;;
50906;SDS011;36882;27.680;85.304;2023-06-22T03:06:39;24.42;;;15.23;;
50906;SDS011;36882;27.680;85.304;2023-06-22T03:09:09;20.02;;;13.77;;
50906;SDS011;36882;27.680;85.304;2023-06-22T03:11:38;23.00;;;11.82;;
50906;SDS011;36882;27.680;85.304;2023-06-22T03:14:08;22.65;;;13.07;;
50906;SDS011;36882;27.680;85.304;2023-06-22T03:16:38;26.23;;;14.35;;
50906;SDS011;36882;27.680;85.304;2023-06-22T03:19:09;25.63;;;15.25;;
50906;SDS011;36882;27.680;85.304;2023-06-22T03:21:39;21.75;;;10.52;;
50906;SDS011;36882;27.680;85.304;2023-06-22T03:24:09;21.90;;;11.75;;
50906;SDS011;36882;27.680;85.304;2023-06-22T03:26:38;18.35;;;11.90;;
50906;SDS011;36882;27.680;85.304;2023-06-22T03:29:08;23.70;;;13.38;;
50906;SDS011;36882;27.680;85.304;2023-06-22T03:31:39;22.88;;;13.80;;
50906;SDS011;36882;27.680;85.304;2023-06-22T03:34:09;20.75;;;12.85;;
50906;SDS011;36882;27.680;85.304;2023-06-22T03:36:38;26.85;;;13.57;;
50906;SDS011;36882;27.680;85.304;2023-06-22T03:39:08;17.67;;;10.45;;
50906;SDS011;36882;27.680;85.304;2023-06-22T03:41:38;15.90;;;9.85;;
50906;SDS011;36882;27.680;85.304;2023-06-22T03:44:08;22.88;;;11.38;;
50906;SDS011;36882;27.680;85.304;2023-06-22T03:46:40;16.90;;;9.93;;
50906;SDS011;36882;27.680;85.304;2023-06-22T03:49:10;18.75;;;9.55;;
50906;SDS011;36882;27.680;85.304;2023-06-22T03:51:40;14.30;;;9.80;;
50906;SDS011;36882;27.680;85.304;2023-06-22T03:54:14;19.20;;;9.93;;
50906;SDS011;36882;27.680;85.304;2023-06-22T03:56:44;21.60;;;12.13;;
50906;SDS011;36882;27.680;85.304;2023-06-22T03:59:20;17.63;;;10.00;;
50906;SDS011;36882;27.680;85.304;2023-06-22T04:01:54;18.48;;;9.13;;
50906;SDS011;36882;27.680;85.304;2023-06-22T04:04:24;18.38;;;9.95;;
50906;SDS011;36882;27.680;85.304;2023-06-22T04:06:54;22.55;;;9.57;;
50906;SDS011;36882;27.680;85.304;2023-06-22T04:09:32;17.55;;;8.02;;
50906;SDS011;36882;27.680;85.304;2023-06-22T04:12:02;11.25;;;8.95;;
50906;SDS011;36882;27.680;85.304;2023-06-22T04:14:32;15.48;;;8.43;;
50906;SDS011;36882;27.680;85.304;2023-06-22T04:17:02;20.30;;;9.77;;
50906;SDS011;36882;27.680;85.304;2023-06-22T04:19:33;20.20;;;8.68;;
50906;SDS011;36882;27.680;85.304;2023-06-22T04:22:03;12.07;;;8.13;;
50906;SDS011;36882;27.680;85.304;2023-06-22T04:24:35;13.80;;;8.65;;
50906;SDS011;36882;27.680;85.304;2023-06-22T04:27:05;20.38;;;8.95;;
50906;SDS011;36882;27.680;85.304;2023-06-22T04:29:35;13.55;;;7.13;;
50906;SDS011;36882;27.680;85.304;2023-06-22T04:32:06;11.75;;;7.72;;
50906;SDS011;36882;27.680;85.304;2023-06-22T04:34:36;11.25;;;8.63;;
50906;SDS011;36882;27.680;85.304;2023-06-22T04:37:06;16.85;;;9.00;;
50906;SDS011;36882;27.680;85.304;2023-06-22T04:39:36;12.65;;;8.65;;
50906;SDS011;36882;27.680;85.304;2023-06-22T04:42:06;12.07;;;8.57;;
50906;SDS011;36882;27.680;85.304;2023-06-22T04:44:36;12.07;;;8.88;;
50906;SDS011;36882;27.680;85.304;2023-06-22T04:47:06;16.90;;;8.15;;
50906;SDS011;36882;27.680;85.304;2023-06-22T04:49:36;13.20;;;8.77;;
50906;SDS011;36882;27.680;85.304;2023-06-22T04:52:09;13.65;;;9.18;;
50906;SDS011;36882;27.680;85.304;2023-06-22T04:54:40;13.10;;;8.93;;
50906;SDS011;36882;27.680;85.304;2023-06-22T04:57:16;19.52;;;9.45;;
50906;SDS011;36882;27.680;85.304;2023-06-22T04:59:46;16.63;;;9.60;;
50906;SDS011;36882;27.680;85.304;2023-06-22T05:02:16;13.43;;;8.90;;
50906;SDS011;36882;27.680;85.304;2023-06-22T05:04:46;14.95;;;9.32;;
50906;SDS011;36882;27.680;85.304;2023-06-22T05:07:19;13.10;;;9.00;;
50906;SDS011;36882;27.680;85.304;2023-06-22T05:09:49;13.38;;;9.20;;
50906;SDS011;36882;27.680;85.304;2023-06-22T05:12:19;16.17;;;9.05;;
50906;SDS011;36882;27.680;85.304;2023-06-22T05:14:49;15.07;;;8.15;;
50906;SDS011;36882;27.680;85.304;2023-06-22T05:17:22;13.73;;;8.45;;
50906;SDS011;36882;27.680;85.304;2023-06-22T05:19:52;13.93;;;8.77;;
50906;SDS011;36882;27.680;85.304;2023-06-22T05:22:23;18.45;;;8.95;;
50906;SDS011;36882;27.680;85.304;2023-06-22T05:24:53;20.42;;;9.48;;
50906;SDS011;36882;27.680;85.304;2023-06-22T05:27:23;22.55;;;8.10;;
50906;SDS011;36882;27.680;85.304;2023-06-22T05:29:53;8.60;;;7.55;;
50906;SDS011;36882;27.680;85.304;2023-06-22T05:32:23;13.05;;;8.00;;
50906;SDS011;36882;27.680;85.304;2023-06-22T05:34:53;11.20;;;7.63;;
50906;SDS011;36882;27.680;85.304;2023-06-22T05:37:23;17.63;;;11.35;;
50906;SDS011;36882;27.680;85.304;2023-06-22T05:39:52;9.55;;;7.75;;
50906;SDS011;36882;27.680;85.304;2023-06-22T05:42:23;15.65;;;7.85;;
50906;SDS011;36882;27.680;85.304;2023-06-22T05:44:54;15.60;;;9.70;;
50906;SDS011;36882;27.680;85.304;2023-06-22T05:47:23;17.90;;;10.10;;
50906;SDS011;36882;27.680;85.304;2023-06-22T05:49:53;12.35;;;8.55;;
50906;SDS011;36882;27.680;85.304;2023-06-22T05:52:23;11.80;;;8.07;;
50906;SDS011;36882;27.680;85.304;2023-06-22T05:54:53;17.58;;;9.35;;
50906;SDS011;36882;27.680;85.304;2023-06-22T05:57:23;12.05;;;8.85;;
50906;SDS011;36882;27.680;85.304;2023-06-22T05:59:53;22.83;;;9.75;;
50906;SDS011;36882;27.680;85.304;2023-06-22T06:02:22;15.27;;;8.65;;
50906;SDS011;36882;27.680;85.304;2023-06-22T06:04:54;17.25;;;9.52;;
50906;SDS011;36882;27.680;85.304;2023-06-22T06:07:24;20.60;;;9.77;;
50906;SDS011;36882;27.680;85.304;2023-06-22T06:09:57;15.13;;;9.20;;
50906;SDS011;36882;27.680;85.304;2023-06-22T06:12:30;14.52;;;8.95;;
50906;SDS011;36882;27.680;85.304;2023-06-22T06:15:00;14.32;;;9.45;;
50906;SDS011;36882;27.680;85.304;2023-06-22T06:17:30;13.23;;;9.48;;
50906;SDS011;36882;27.680;85.304;2023-06-22T06:20:01;10.98;;;8.48;;
50906;SDS011;36882;27.680;85.304;2023-06-22T06:22:33;14.48;;;9.20;;
50906;SDS011;36882;27.680;85.304;2023-06-22T06:25:05;19.65;;;10.05;;
50906;SDS011;36882;27.680;85.304;2023-06-22T06:27:35;13.48;;;9.00;;
50906;SDS011;36882;27.680;85.304;2023-06-22T06:30:06;12.75;;;10.25;;
50906;SDS011;36882;27.680;85.304;2023-06-22T06:32:36;12.48;;;9.50;;
50906;SDS011;36882;27.680;85.304;2023-06-22T06:35:07;17.73;;;10.90;;
50906;SDS011;36882;27.680;85.304;2023-06-22T06:37:38;11.88;;;9.50;;
50906;SDS011;36882;27.680;85.304;2023-06-22T06:40:09;16.13;;;10.23;;
50906;SDS011;36882;27.680;85.304;2023-06-22T06:42:40;16.08;;;11.25;;
50906;SDS011;36882;27.680;85.304;2023-06-22T06:45:14;12.27;;;9.57;;
50906;SDS011;36882;27.680;85.304;2023-06-22T06:47:44;24.45;;;11.27;;
50906;SDS011;36882;27.680;85.304;2023-06-22T06:50:15;17.15;;;11.60;;
50906;SDS011;36882;27.680;85.304;2023-06-22T06:52:47;18.65;;;10.88;;
50906;SDS011;36882;27.680;85.304;2023-06-22T06:55:21;17.92;;;10.60;;
50906;SDS011;36882;27.680;85.304;2023-06-22T06:57:53;17.85;;;10.63;;
50906;SDS011;36882;27.680;85.304;2023-06-22T07:00:23;18.02;;;11.57;;
50906;SDS011;36882;27.680;85.304;2023-06-22T07:02:54;32.10;;;14.70;;
50906;SDS011;36882;27.680;85.304;2023-06-22T07:05:24;12.30;;;10.52;;
50906;SDS011;36882;27.680;85.304;2023-06-22T07:07:54;20.73;;;11.57;;
50906;SDS011;36882;27.680;85.304;2023-06-22T07:10:23;21.77;;;12.40;;
50906;SDS011;36882;27.680;85.304;2023-06-22T07:12:54;12.93;;;10.13;;
50906;SDS011;36882;27.680;85.304;2023-06-22T07:15:25;19.75;;;10.55;;
50906;SDS011;36882;27.680;85.304;2023-06-22T07:17:55;14.15;;;10.02;;
50906;SDS011;36882;27.680;85.304;2023-06-22T07:20:25;12.43;;;10.18;;
50906;SDS011;36882;27.680;85.304;2023-06-22T07:22:55;18.77;;;11.65;;
50906;SDS011;36882;27.680;85.304;2023-06-22T07:25:26;16.33;;;11.27;;
50906;SDS011;36882;27.680;85.304;2023-06-22T07:28:00;24.35;;;12.15;;
50906;SDS011;36882;27.680;85.304;2023-06-22T07:30:31;16.80;;;11.02;;
50906;SDS011;36882;27.680;85.304;2023-06-22T07:33:01;18.23;;;12.60;;
50906;SDS011;36882;27.680;85.304;2023-06-22T07:35:36;18.10;;;13.23;;
50906;SDS011;36882;27.680;85.304;2023-06-22T07:38:06;19.60;;;12.80;;
50906;SDS011;36882;27.680;85.304;2023-06-22T07:40:37;15.15;;;12.20;;
50906;SDS011;36882;27.680;85.304;2023-06-22T07:43:08;14.98;;;11.60;;
50906;SDS011;36882;27.680;85.304;2023-06-22T07:45:38;20.60;;;12.10;;
50906;SDS011;36882;27.680;85.304;2023-06-22T07:48:09;18.75;;;12.13;;
50906;SDS011;36882;27.680;85.304;2023-06-22T07:50:38;24.00;;;12.40;;
50906;SDS011;36882;27.680;85.304;2023-06-22T07:53:09;15.73;;;10.85;;
50906;SDS011;36882;27.680;85.304;2023-06-22T07:55:40;17.95;;;12.43;;
50906;SDS011;36882;27.680;85.304;2023-06-22T07:58:13;18.73;;;12.70;;
50906;SDS011;36882;27.680;85.304;2023-06-22T08:00:44;20.95;;;12.73;;
50906;SDS011;36882;27.680;85.304;2023-06-22T08:03:14;19.45;;;13.43;;
50906;SDS011;36882;27.680;85.304;2023-06-22T08:05:44;23.33;;;15.05;;
50906;SDS011;36882;27.680;85.304;2023-06-22T08:08:14;21.70;;;14.02;;
50906;SDS011;36882;27.680;85.304;2023-06-22T08:10:43;33.38;;;16.50;;
50906;SDS011;36882;27.680;85.304;2023-06-22T08:13:16;25.92;;;14.60;;
50906;SDS011;36882;27.680;85.304;2023-06-22T08:15:47;17.63;;;13.15;;
50906;SDS011;36882;27.680;85.304;2023-06-22T08:18:17;16.27;;;11.77;;
50906;SDS011;36882;27.680;85.304;2023-06-22T08:20:47;20.05;;;12.85;;
50906;SDS011;36882;27.680;85.304;2023-06-22T08:23:18;17.20;;;14.57;;
50906;SDS011;36882;27.680;85.304;2023-06-22T08:25:47;21.17;;;15.13;;
50906;SDS011;36882;27.680;85.304;2023-06-22T08:28:18;20.10;;;13.45;;
50906;SDS011;36882;27.680;85.304;2023-06-22T08:32:02;17.65;;;14.13;;
50906;SDS011;36882;27.680;85.304;2023-06-22T08:34:32;31.65;;;18.48;;
50906;SDS011;36882;27.680;85.304;2023-06-22T08:37:02;36.20;;;23.17;;
50906;SDS011;36882;27.680;85.304;2023-06-22T08:39:34;24.13;;;16.90;;
50906;SDS011;36882;27.680;85.304;2023-06-22T08:42:04;24.90;;;18.27;;
50906;SDS011;36882;27.680;85.304;2023-06-22T08:44:34;22.73;;;14.43;;
50906;SDS011;36882;27.680;85.304;2023-06-22T08:47:04;35.40;;;19.48;;
50906;SDS011;36882;27.680;85.304;2023-06-22T08:49:34;23.38;;;15.82;;
50906;SDS011;36882;27.680;85.304;2023-06-22T08:52:04;25.92;;;17.42;;
50906;SDS011;36882;27.680;85.304;2023-06-22T08:54:34;32.33;;;20.33;;
50906;SDS011;36882;27.680;85.304;2023-06-22T08:57:04;44.53;;;27.00;;
50906;SDS011;36882;27.680;85.304;2023-06-22T08:59:34;53.58;;;29.77;;
50906;SDS011;36882;27.680;85.304;2023-06-22T09:02:04;33.55;;;19.73;;
50906;SDS011;36882;27.680;85.304;2023-06-22T09:04:34;27.05;;;15.68;;
50906;SDS011;36882;27.680;85.304;2023-06-22T09:07:04;29.67;;;19.45;;
50906;SDS011;36882;27.680;85.304;2023-06-22T09:09:34;26.08;;;18.98;;
50906;SDS011;36882;27.680;85.304;2023-06-22T09:12:04;27.42;;;19.58;;
50906;SDS011;36882;27.680;85.304;2023-06-22T09:14:34;27.35;;;19.30;;
50906;SDS011;36882;27.680;85.304;2023-06-22T09:17:04;29.50;;;18.17;;
50906;SDS011;36882;27.680;85.304;2023-06-22T09:19:34;25.33;;;17.67;;
50906;SDS011;36882;27.680;85.304;2023-06-22T09:22:06;26.23;;;19.17;;
50906;SDS011;36882;27.680;85.304;2023-06-22T09:24:36;30.48;;;15.85;;
50906;SDS011;36882;27.680;85.304;2023-06-22T09:27:06;25.55;;;14.85;;
50906;SDS011;36882;27.680;85.304;2023-06-22T09:29:36;23.45;;;15.70;;
50906;SDS011;36882;27.680;85.304;2023-06-22T09:32:06;26.45;;;14.75;;
50906;SDS011;36882;27.680;85.304;2023-06-22T09:34:36;25.55;;;15.02;;
50906;SDS011;36882;27.680;85.304;2023-06-22T09:37:06;19.27;;;15.07;;
50906;SDS011;36882;27.680;85.304;2023-06-22T09:39:36;27.70;;;14.93;;
50906;SDS011;36882;27.680;85.304;2023-06-22T09:42:06;21.08;;;15.00;;
50906;SDS011;36882;27.680;85.304;2023-06-22T09:44:39;23.30;;;15.60;;
50906;SDS011;36882;27.680;85.304;2023-06-22T09:47:10;30.27;;;16.33;;
50906;SDS011;36882;27.680;85.304;2023-06-22T09:49:39;28.60;;;14.73;;
50906;SDS011;36882;27.680;85.304;2023-06-22T09:52:15;20.73;;;16.40;;
50906;SDS011;36882;27.680;85.304;2023-06-22T09:54:47;21.95;;;15.27;;
50906;SDS011;36882;27.680;85.304;2023-06-22T09:57:17;19.70;;;14.45;;
50906;SDS011;36882;27.680;85.304;2023-06-22T09:59:47;22.00;;;14.60;;
50906;SDS011;36882;27.680;85.304;2023-06-22T10:02:17;21.67;;;16.10;;
50906;SDS011;36882;27.680;85.304;2023-06-22T10:04:47;23.48;;;16.70;;
50906;SDS011;36882;27.680;85.304;2023-06-22T10:07:17;29.95;;;16.02;;
50906;SDS011;36882;27.680;85.304;2023-06-22T10:09:47;24.88;;;16.95;;
50906;SDS011;36882;27.680;85.304;2023-06-22T10:12:18;28.58;;;18.65;;
50906;SDS011;36882;27.680;85.304;2023-06-22T10:14:47;23.40;;;16.05;;
50906;SDS011;36882;27.680;85.304;2023-06-22T10:17:18;32.97;;;16.52;;
50906;SDS011;36882;27.680;85.304;2023-06-22T10:19:48;20.40;;;16.58;;
50906;SDS011;36882;27.680;85.304;2023-06-22T10:22:17;33.53;;;18.70;;
50906;SDS011;36882;27.680;85.304;2023-06-22T10:24:48;23.58;;;17.00;;
50906;SDS011;36882;27.680;85.304;2023-06-22T10:27:17;22.55;;;17.00;;
50906;SDS011;36882;27.680;85.304;2023-06-22T10:29:47;32.90;;;17.50;;
50906;SDS011;36882;27.680;85.304;2023-06-22T10:32:19;31.45;;;17.33;;
50906;SDS011;36882;27.680;85.304;2023-06-22T10:34:49;34.28;;;17.58;;
50906;SDS011;36882;27.680;85.304;2023-06-22T10:37:19;31.48;;;18.65;;
50906;SDS011;36882;27.680;85.304;2023-06-22T10:39:49;24.48;;;18.10;;
50906;SDS011;36882;27.680;85.304;2023-06-22T10:42:19;34.35;;;17.58;;
50906;SDS011;36882;27.680;85.304;2023-06-22T10:44:49;45.83;;;19.58;;
50906;SDS011;36882;27.680;85.304;2023-06-22T10:47:18;25.88;;;17.38;;
50906;SDS011;36882;27.680;85.304;2023-06-22T10:49:49;31.95;;;17.73;;
50906;SDS011;36882;27.680;85.304;2023-06-22T10:52:19;40.33;;;19.80;;
50906;SDS011;36882;27.680;85.304;2023-06-22T10:54:49;24.05;;;17.90;;
50906;SDS011;36882;27.680;85.304;2023-06-22T10:57:21;25.45;;;18.23;;
50906;SDS011;36882;27.680;85.304;2023-06-22T10:59:51;26.13;;;18.75;;
50906;SDS011;36882;27.680;85.304;2023-06-22T11:02:21;40.78;;;20.80;;
50906;SDS011;36882;27.680;85.304;2023-06-22T11:04:51;35.58;;;20.08;;
50906;SDS011;36882;27.680;85.304;2023-06-22T11:07:20;29.27;;;20.02;;
50906;SDS011;36882;27.680;85.304;2023-06-22T11:09:50;31.65;;;19.88;;
50906;SDS011;36882;27.680;85.304;2023-06-22T11:12:20;28.95;;;20.92;;
50906;SDS011;36882;27.680;85.304;2023-06-22T11:14:50;34.10;;;19.60;;
50906;SDS011;36882;27.680;85.304;2023-06-22T11:17:19;35.35;;;19.02;;
50906;SDS011;36882;27.680;85.304;2023-06-22T11:19:50;43.15;;;19.73;;
50906;SDS011;36882;27.680;85.304;2023-06-22T11:22:21;40.15;;;21.35;;
50906;SDS011;36882;27.680;85.304;2023-06-22T11:24:50;34.00;;;19.50;;
50906;SDS011;36882;27.680;85.304;2023-06-22T11:27:20;31.38;;;18.98;;
50906;SDS011;36882;27.680;85.304;2023-06-22T11:29:50;31.35;;;18.55;;
50906;SDS011;36882;27.680;85.304;2023-06-22T11:32:22;35.25;;;18.65;;
50906;SDS011;36882;27.680;85.304;2023-06-22T11:34:52;26.85;;;17.27;;
50906;SDS011;36882;27.680;85.304;2023-06-22T11:37:22;33.95;;;19.13;;
50906;SDS011;36882;27.680;85.304;2023-06-22T11:39:51;30.73;;;19.17;;
50906;SDS011;36882;27.680;85.304;2023-06-22T11:42:33;28.58;;;20.52;;
50906;SDS011;36882;27.680;85.304;2023-06-22T11:45:04;46.20;;;20.52;;
50906;SDS011;36882;27.680;85.304;2023-06-22T11:47:34;37.45;;;19.38;;
50906;SDS011;36882;27.680;85.304;2023-06-22T11:50:04;28.85;;;18.63;;
50906;SDS011;36882;27.680;85.304;2023-06-22T11:52:35;34.55;;;20.90;;
50906;SDS011;36882;27.680;85.304;2023-06-22T11:55:05;35.55;;;20.73;;
50906;SDS011;36882;27.680;85.304;2023-06-22T11:57:35;34.33;;;19.80;;
50906;SDS011;36882;27.680;85.304;2023-06-22T12:00:06;37.33;;;20.60;;
50906;SDS011;36882;27.680;85.304;2023-06-22T12:05:15;41.08;;;20.77;;
50906;SDS011;36882;27.680;85.304;2023-06-22T12:07:44;29.42;;;19.55;;
50906;SDS011;36882;27.680;85.304;2023-06-22T12:10:14;38.92;;;19.63;;
50906;SDS011;36882;27.680;85.304;2023-06-22T12:12:44;24.27;;;19.38;;
50906;SDS011;36882;27.680;85.304;2023-06-22T12:15:14;37.33;;;19.95;;
50906;SDS011;36882;27.680;85.304;2023-06-22T12:17:44;32.40;;;20.42;;
50906;SDS011;36882;27.680;85.304;2023-06-22T12:20:14;36.05;;;19.80;;
50906;SDS011;36882;27.680;85.304;2023-06-22T12:22:44;32.72;;;19.13;;
50906;SDS011;36882;27.680;85.304;2023-06-22T12:25:13;32.17;;;20.52;;
50906;SDS011;36882;27.680;85.304;2023-06-22T12:27:43;25.95;;;18.63;;
50906;SDS011;36882;27.680;85.304;2023-06-22T12:30:13;39.03;;;22.60;;
50906;SDS011;36882;27.680;85.304;2023-06-22T12:32:43;42.25;;;20.25;;
50906;SDS011;36882;27.680;85.304;2023-06-22T12:35:13;36.33;;;21.83;;
50906;SDS011;36882;27.680;85.304;2023-06-22T12:37:43;35.28;;;19.77;;
50906;SDS011;36882;27.680;85.304;2023-06-22T12:40:12;32.38;;;20.45;;
50906;SDS011;36882;27.680;85.304;2023-06-22T12:42:44;36.03;;;22.55;;
50906;SDS011;36882;27.680;85.304;2023-06-22T12:45:14;39.58;;;21.85;;
50906;SDS011;36882;27.680;85.304;2023-06-22T12:47:47;33.17;;;21.33;;
50906;SDS011;36882;27.680;85.304;2023-06-22T12:50:18;42.35;;;23.05;;
50906;SDS011;36882;27.680;85.304;2023-06-22T12:52:48;40.95;;;23.10;;
50906;SDS011;36882;27.680;85.304;2023-06-22T12:55:17;30.88;;;21.40;;
50906;SDS011;36882;27.680;85.304;2023-06-22T12:57:47;42.08;;;22.63;;
50906;SDS011;36882;27.680;85.304;2023-06-22T13:00:17;32.33;;;23.20;;
50906;SDS011;36882;27.680;85.304;2023-06-22T13:02:47;34.67;;;22.23;;
50906;SDS011;36882;27.680;85.304;2023-06-22T13:05:20;35.17;;;22.92;;
50906;SDS011;36882;27.680;85.304;2023-06-22T13:07:49;38.22;;;21.92;;
50906;SDS011;36882;27.680;85.304;2023-06-22T13:10:21;33.70;;;23.77;;
50906;SDS011;36882;27.680;85.304;2023-06-22T13:12:51;34.40;;;23.13;;
50906;SDS011;36882;27.680;85.304;2023-06-22T13:15:29;31.30;;;23.40;;
50906;SDS011;36882;27.680;85.304;2023-06-22T13:18:00;37.20;;;24.20;;
50906;SDS011;36882;27.680;85.304;2023-06-22T13:20:29;39.63;;;22.98;;
50906;SDS011;36882;27.680;85.304;2023-06-22T13:22:59;40.72;;;24.25;;
50906;SDS011;36882;27.680;85.304;2023-06-22T13:25:29;45.80;;;26.15;;
50906;SDS011;36882;27.680;85.304;2023-06-22T13:27:59;41.95;;;25.63;;
50906;SDS011;36882;27.680;85.304;2023-06-22T13:30:33;34.72;;;23.60;;
50906;SDS011;36882;27.680;85.304;2023-06-22T13:33:03;39.00;;;25.55;;
50906;SDS011;36882;27.680;85.304;2023-06-22T13:35:32;38.08;;;25.17;;
50906;SDS011;36882;27.680;85.304;2023-06-22T13:38:03;45.63;;;23.58;;
50906;SDS011;36882;27.680;85.304;2023-06-22T13:40:33;51.65;;;23.55;;
50906;SDS011;36882;27.680;85.304;2023-06-22T13:43:04;42.28;;;24.77;;
50906;SDS011;36882;27.680;85.304;2023-06-22T13:45:34;42.60;;;25.92;;
50906;SDS011;36882;27.680;85.304;2023-06-22T13:48:04;43.75;;;28.40;;
50906;SDS011;36882;27.680;85.304;2023-06-22T13:50:34;43.05;;;31.83;;
50906;SDS011;36882;27.680;85.304;2023-06-22T13:53:04;44.03;;;34.85;;
50906;SDS011;36882;27.680;85.304;2023-06-22T13:55:33;55.35;;;39.58;;
50906;SDS011;36882;27.680;85.304;2023-06-22T13:58:03;42.08;;;33.88;;
50906;SDS011;36882;27.680;85.304;2023-06-22T14:00:33;41.38;;;32.78;;
50906;SDS011;36882;27.680;85.304;2023-06-22T14:03:03;53.05;;;34.05;;
50906;SDS011;36882;27.680;85.304;2023-06-22T14:05:33;44.60;;;33.63;;
50906;SDS011;36882;27.680;85.304;2023-06-22T14:08:03;48.05;;;32.03;;
50906;SDS011;36882;27.680;85.304;2023-06-22T14:10:53;47.22;;;32.05;;
50906;SDS011;36882;27.680;85.304;2023-06-22T14:13:23;48.78;;;33.25;;
50906;SDS011;36882;27.680;85.304;2023-06-22T14:15:53;44.38;;;32.63;;
50906;SDS011;36882;27.680;85.304;2023-06-22T14:18:22;56.42;;;35.22;;
50906;SDS011;36882;27.680;85.304;2023-06-22T14:20:52;50.42;;;36.55;;
50906;SDS011;36882;27.680;85.304;2023-06-22T14:23:22;57.95;;;38.60;;
50906;SDS011;36882;27.680;85.304;2023-06-22T14:25:52;51.38;;;35.92;;
50906;SDS011;36882;27.680;85.304;2023-06-22T14:28:25;51.67;;;34.60;;
50906;SDS011;36882;27.680;85.304;2023-06-22T14:33:24;51.28;;;36.22;;
50906;SDS011;36882;27.680;85.304;2023-06-22T14:35:54;46.08;;;33.03;;
50906;SDS011;36882;27.680;85.304;2023-06-22T14:38:24;53.58;;;35.00;;
50906;SDS011;36882;27.680;85.304;2023-06-22T14:40:55;46.63;;;33.85;;
50906;SDS011;36882;27.680;85.304;2023-06-22T14:43:44;59.80;;;35.55;;
50906;SDS011;36882;27.680;85.304;2023-06-22T14:46:15;53.88;;;38.95;;
50906;SDS011;36882;27.680;85.304;2023-06-22T14:48:51;56.75;;;38.30;;
50906;SDS011;36882;27.680;85.304;2023-06-22T14:53:50;57.95;;;36.13;;
50906;SDS011;36882;27.680;85.304;2023-06-22T14:56:19;53.80;;;36.97;;
50906;SDS011;36882;27.680;85.304;2023-06-22T14:58:49;48.88;;;33.95;;
50906;SDS011;36882;27.680;85.304;2023-06-22T15:01:19;56.13;;;37.85;;
50906;SDS011;36882;27.680;85.304;2023-06-22T15:03:49;49.38;;;34.70;;
50906;SDS011;36882;27.680;85.304;2023-06-22T15:06:21;59.45;;;38.28;;
50906;SDS011;36882;27.680;85.304;2023-06-22T15:08:50;59.58;;;37.22;;
50906;SDS011;36882;27.680;85.304;2023-06-22T15:13:49;56.30;;;37.05;;
50906;SDS011;36882;27.680;85.304;2023-06-22T15:18:48;55.83;;;37.90;;
50906;SDS011;36882;27.680;85.304;2023-06-22T15:23:47;56.85;;;38.08;;